Time;durP1;ratioP1;P1;durP2;ratioP2;P2;SDS_P1;SDS_P2;PMS_P1;PMS_P2;Temp;Humidity;BMP_temperature;BMP_pressure;BME280_temperature;BME280_humidity;BME280_pressure;Samples;Min_cycle;Max_cycle;Signal;HPM_P1;HPM_P2
2023/01/21 00:01:08;;;;;;;60.30;35.30;;;;;;;2.48;100.00;99844.79;109056;1258;74940;-72
2023/01/21 00:03:38;;;;;;;51.10;28.80;;;;;;;2.44;100.00;99843.94;109125;1256;60885;-75
2023/01/21 00:06:05;;;;;;;48.00;30.70;;;;;;;2.42;100.00;99836.98;109082;1256;59235;-74
2023/01/21 00:08:33;;;;;;;45.00;27.70;;;;;;;2.44;100.00;99832.13;109100;1256;73046;-74
2023/01/21 00:11:07;;;;;;;64.00;37.00;;;;;;;2.43;100.00;99826.98;109033;1256;69939;-78
2023/01/21 00:13:35;;;;;;;57.50;32.00;;;;;;;2.40;100.00;99833.66;109058;1256;73799;-78
2023/01/21 00:16:04;;;;;;;49.70;30.40;;;;;;;2.37;100.00;99840.79;109001;1256;60999;-75
2023/01/21 00:18:35;;;;;;;62.00;34.50;;;;;;;2.30;100.00;99843.14;109083;1256;58805;-75
2023/01/21 00:21:07;;;;;;;55.40;33.70;;;;;;;2.26;100.00;99845.27;109131;1256;74135;-76
2023/01/21 00:23:36;;;;;;;66.40;36.00;;;;;;;2.22;100.00;99845.59;109078;1256;66682;-75
2023/01/21 00:26:05;;;;;;;57.70;33.90;;;;;;;2.18;100.00;99850.04;109127;1256;74376;-74
2023/01/21 00:28:33;;;;;;;53.20;31.60;;;;;;;2.14;100.00;99841.18;108951;1256;59702;-72
2023/01/21 00:31:01;;;;;;;59.10;32.40;;;;;;;2.12;100.00;99842.70;109127;1256;58740;-70
2023/01/21 00:33:29;;;;;;;53.10;31.30;;;;;;;2.06;100.00;99842.05;109013;1256;74409;-72
2023/01/21 00:35:58;;;;;;;61.20;33.50;;;;;;;2.01;100.00;99840.57;109036;1256;70164;-70
2023/01/21 00:38:25;;;;;;;46.60;29.20;;;;;;;1.94;100.00;99836.11;109200;1256;73579;-69
2023/01/21 00:41:04;;;;;;;51.60;32.70;;;;;;;1.91;100.00;99833.48;109111;1256;62169;-66
2023/01/21 00:43:32;;;;;;;54.90;33.20;;;;;;;1.90;100.00;99832.45;108271;1256;1002341;-68
2023/01/21 00:46:00;;;;;;;63.50;33.80;;;;;;;1.92;100.00;99833.89;109116;1256;74267;-69
2023/01/21 00:48:30;;;;;;;51.20;29.90;;;;;;;1.96;100.00;99839.63;109050;1256;69333;-67
2023/01/21 00:50:59;;;;;;;59.00;31.40;;;;;;;1.93;100.00;99836.66;108963;1256;71379;-71
2023/01/21 00:53:28;;;;;;;54.50;30.00;;;;;;;1.89;100.00;99835.20;108935;1258;63393;-67
2023/01/21 00:56:00;;;;;;;57.60;34.80;;;;;;;1.87;100.00;99840.45;109051;1256;60942;-70
2023/01/21 00:58:27;;;;;;;57.60;33.10;;;;;;;1.86;100.00;99845.70;109095;1256;75297;-70
2023/01/21 01:01:02;;;;;;;47.20;24.60;;;;;;;1.82;100.00;99847.59;109021;1256;68768;-69
2023/01/21 01:03:32;;;;;;;53.50;32.80;;;;;;;1.71;100.00;99851.25;109025;1256;74834;-70
2023/01/21 01:06:19;;;;;;;51.70;30.40;;;;;;;1.67;100.00;99850.16;108938;1257;64782;-68
2023/01/21 01:08:46;;;;;;;59.90;33.40;;;;;;;1.67;100.00;99854.41;109072;1256;62478;-70
2023/01/21 01:11:13;;;;;;;55.20;30.00;;;;;;;1.66;100.00;99853.42;109067;1256;73572;-70
2023/01/21 01:13:40;;;;;;;57.10;32.80;;;;;;;1.70;100.00;99855.95;109153;1256;67898;-69
2023/01/21 01:16:07;;;;;;;55.00;31.30;;;;;;;1.73;100.00;99858.42;109109;1256;74249;-71
2023/01/21 01:18:35;;;;;;;59.50;32.20;;;;;;;1.73;100.00;99854.83;109034;1256;59970;-73
2023/01/21 01:21:02;;;;;;;61.60;34.80;;;;;;;1.74;100.00;99853.70;109108;1256;61301;-69
2023/01/21 01:23:29;;;;;;;52.80;30.60;;;;;;;1.75;100.00;99847.52;109130;1256;74135;-70
2023/01/21 01:26:03;;;;;;;53.40;30.70;;;;;;;1.75;100.00;99844.58;109093;1256;70013;-73
2023/01/21 01:28:31;;;;;;;47.20;29.60;;;;;;;1.77;100.00;99838.84;109083;1256;74978;-73
2023/01/21 01:30:58;;;;;;;53.00;31.00;;;;;;;1.81;100.00;99832.45;109021;1256;60475;-70
2023/01/21 01:33:25;;;;;;;48.90;27.90;;;;;;;1.79;100.00;99827.23;109205;1256;60581;-70
2023/01/21 01:35:52;;;;;;;50.80;32.80;;;;;;;1.78;100.00;99821.27;109188;1257;75237;-71
2023/01/21 01:38:20;;;;;;;47.80;30.20;;;;;;;1.78;100.00;99822.04;109072;1257;67061;-71
2023/01/21 01:40:47;;;;;;;53.30;29.70;;;;;;;1.76;100.00;99817.17;109051;1257;71495;-72
2023/01/21 01:43:16;;;;;;;53.50;29.70;;;;;;;1.74;100.00;99816.18;108998;1257;61383;-72
2023/01/21 01:45:43;;;;;;;55.40;29.90;;;;;;;1.76;100.00;99816.20;109071;1257;62570;-77
2023/01/21 01:48:13;;;;;;;52.30;29.90;;;;;;;1.80;100.00;99823.25;109095;1258;72861;-73
2023/01/21 01:50:40;;;;;;;51.30;29.90;;;;;;;1.81;100.00;99823.67;109071;1257;69526;-76
2023/01/21 01:53:07;;;;;;;48.40;28.50;;;;;;;1.80;100.00;99817.91;109118;1259;74788;-75
2023/01/21 01:55:34;;;;;;;52.90;31.40;;;;;;;1.80;100.00;99821.73;108914;1257;61296;-73
2023/01/21 01:58:02;;;;;;;47.20;29.50;;;;;;;1.76;100.00;99810.17;109035;1258;61748;-74
2023/01/21 02:00:29;;;;;;;50.80;28.10;;;;;;;1.74;100.00;99815.61;109062;1257;74546;-71
2023/01/21 02:05:41;;;;;;;48.10;25.90;;;;;;;1.83;100.00;99822.59;109066;1258;73644;-72
2023/01/21 02:08:08;;;;;;;43.70;26.20;;;;;;;1.87;100.00;99819.23;108899;1257;58224;-70
2023/01/21 02:10:35;;;;;;;44.30;26.40;;;;;;;1.88;100.00;99821.92;108941;1257;60088;-72
2023/01/21 02:13:02;;;;;;;47.10;26.90;;;;;;;1.91;100.00;99819.80;109086;1257;72706;-70
2023/01/21 02:15:58;;;;;;;47.70;27.60;;;;;;;1.87;100.00;99822.49;109062;1258;66594;-73
2023/01/21 02:18:54;;;;;;;48.90;29.20;;;;;;;1.86;100.00;99818.85;108944;1259;73892;-70
2023/01/21 02:21:51;;;;;;;53.30;29.30;;;;;;;1.83;100.00;99820.30;109007;1257;61782;-71
2023/01/21 02:24:49;;;;;;;47.20;27.20;;;;;;;1.80;100.00;99815.34;109075;1257;58821;-72
2023/01/21 02:27:24;;;;;;;40.20;27.70;;;;;;;1.86;100.00;99812.86;109104;1257;72882;-69
2023/01/21 02:30:09;;;;;;;50.70;28.00;;;;;;;1.92;100.00;99811.00;109102;1258;68689;-70
2023/01/21 02:33:14;;;;;;;47.30;27.50;;;;;;;1.93;100.00;99811.13;109083;1258;74900;-70
2023/01/21 02:35:50;;;;;;;49.70;28.70;;;;;;;1.87;100.00;99811.20;109039;1259;61132;-69
2023/01/21 02:38:33;;;;;;;40.30;25.70;;;;;;;1.86;100.00;99814.34;109025;1259;58196;-71
2023/01/21 02:41:12;;;;;;;48.80;26.00;;;;;;;1.83;100.00;99812.91;108978;1259;74098;-72
2023/01/21 02:43:50;;;;;;;40.40;25.30;;;;;;;1.82;100.00;99818.98;108996;1259;68432;-72
2023/01/21 02:46:21;;;;;;;50.40;27.70;;;;;;;1.82;100.00;99827.55;108874;1259;71791;-72
2023/01/21 02:49:01;;;;;;;42.80;26.50;;;;;;;1.80;100.00;99829.17;108895;1259;59680;-70
2023/01/21 02:51:28;;;;;;;44.90;27.30;;;;;;;1.71;100.00;99830.55;108994;1259;60299;-69
2023/01/21 02:53:55;;;;;;;53.00;28.20;;;;;;;1.65;100.00;99832.33;109000;1259;72564;-70
2023/01/21 02:56:25;;;;;;;35.20;22.00;;;;;;;1.62;100.00;99844.05;109036;1259;70017;-70
2023/01/21 02:58:55;;;;;;;41.00;23.20;;;;;;;1.60;100.00;99855.36;108980;1259;75075;-70
2023/01/21 03:01:49;;;;;;;45.50;24.60;;;;;;;1.58;100.00;99854.03;108961;1259;61146;-71
2023/01/21 03:04:35;;;;;;;40.20;23.30;;;;;;;1.59;100.00;99859.95;109007;1259;58819;-69
2023/01/21 03:07:21;;;;;;;40.40;23.90;;;;;;;1.63;100.00;99859.59;108889;1259;75789;-70
2023/01/21 03:09:48;;;;;;;40.90;26.70;;;;;;;1.61;100.00;99864.58;109036;1259;69855;-69
2023/01/21 03:12:42;;;;;;;41.90;21.50;;;;;;;1.57;100.00;99865.02;108990;1259;72797;-68
2023/01/21 03:18:23;;;;;;;46.50;23.20;;;;;;;1.50;100.00;99852.30;108937;1259;62399;-70
2023/01/21 03:21:14;;;;;;;40.50;23.20;;;;;;;1.53;100.00;99857.20;108998;1259;74338;-72
2023/01/21 03:23:44;;;;;;;47.40;22.60;;;;;;;1.57;100.00;99857.32;108950;1258;68544;-68
2023/01/21 03:26:12;;;;;;;42.40;22.80;;;;;;;1.58;100.00;99849.49;108907;1259;73838;-70
2023/01/21 03:28:43;;;;;;;37.40;20.10;;;;;;;1.59;100.00;99852.31;108983;1259;58457;-68
2023/01/21 03:31:16;;;;;;;38.60;20.80;;;;;;;1.58;100.00;99846.97;109012;1259;61097;-68
2023/01/21 03:33:44;;;;;;;38.40;23.70;;;;;;;1.56;100.00;99853.31;109013;1259;75877;-69
2023/01/21 03:36:22;;;;;;;42.90;21.60;;;;;;;1.59;100.00;99845.52;109055;1258;67037;-68
2023/01/21 03:38:49;;;;;;;34.90;22.60;;;;;;;1.66;100.00;99838.45;109017;1259;73254;-69
2023/01/21 03:41:21;;;;;;;38.20;22.80;;;;;;;1.73;100.00;99834.15;108938;1258;58449;-68
2023/01/21 03:43:48;;;;;;;38.20;25.00;;;;;;;1.83;100.00;99851.87;108925;1258;60177;-69
2023/01/21 03:46:38;;;;;;;36.90;22.80;;;;;;;1.80;100.00;99858.13;108950;1258;72562;-71
2023/01/21 03:49:13;;;;;;;44.50;23.30;;;;;;;1.71;100.00;99842.51;109045;1259;68279;-71
2023/01/21 03:51:47;;;;;;;37.60;23.80;;;;;;;1.73;100.00;99835.23;108867;1261;71321;-70
2023/01/21 03:54:14;;;;;;;44.90;23.20;;;;;;;1.79;100.00;99829.55;108901;1259;58135;-69
2023/01/21 03:56:41;;;;;;;29.50;19.10;;;;;;;1.83;100.00;99826.79;109018;1259;60184;-70
2023/01/21 03:59:08;;;;;;;42.80;23.90;;;;;;;1.86;100.00;99840.77;109018;1258;75034;-70
2023/01/21 04:01:36;;;;;;;38.50;21.60;;;;;;;1.88;100.00;99855.42;109006;1259;68954;-72
2023/01/21 04:04:03;;;;;;;38.10;22.40;;;;;;;1.88;100.00;99847.11;108904;1259;74799;-73
2023/01/21 04:06:32;;;;;;;37.40;22.00;;;;;;;1.89;100.00;99820.92;109129;1258;62089;-72
2023/01/21 04:08:59;;;;;;;44.80;21.30;;;;;;;1.91;100.00;99830.90;109060;1258;60828;-71
2023/01/21 04:11:26;;;;;;;34.20;19.70;;;;;;;1.94;100.00;99838.59;109044;1258;74609;-71
2023/01/21 04:13:53;;;;;;;38.90;24.20;;;;;;;1.91;99.85;99828.65;109003;1258;68664;-68
2023/01/21 04:16:21;;;;;;;39.70;20.90;;;;;;;1.91;99.98;99827.19;109009;1258;72902;-71
2023/01/21 04:18:48;;;;;;;42.30;21.20;;;;;;;1.93;99.65;99844.98;108924;1258;61161;-70
2023/01/21 04:21:17;;;;;;;32.50;20.20;;;;;;;1.82;99.44;99843.51;108955;1258;61752;-70
2023/01/21 04:23:44;;;;;;;42.10;23.70;;;;;;;1.72;99.36;99838.52;109009;1259;72296;-70
2023/01/21 04:26:11;;;;;;;33.60;20.40;;;;;;;1.70;99.69;99836.04;108972;1259;70428;-68
2023/01/21 04:28:38;;;;;;;41.00;21.10;;;;;;;1.69;99.71;99846.84;108977;1259;71575;-68
2023/01/21 04:31:06;;;;;;;35.50;19.40;;;;;;;1.66;99.78;99852.80;108974;1259;58242;-70
2023/01/21 04:33:35;;;;;;;29.50;20.20;;;;;;;1.63;99.70;99857.55;109006;1258;59895;-70
2023/01/21 04:36:07;;;;;;;38.50;23.70;;;;;;;1.65;99.79;99854.66;108937;1259;74299;-69
2023/01/21 04:38:37;;;;;;;34.80;18.90;;;;;;;1.63;99.77;99865.59;109022;1259;67921;-68
2023/01/21 04:41:06;;;;;;;33.10;20.70;;;;;;;1.57;99.76;99861.60;107475;1259;1002247;-67
2023/01/21 04:43:36;;;;;;;29.60;18.30;;;;;;;1.53;99.95;99858.38;108963;1258;61308;-70
2023/01/21 04:46:06;;;;;;;39.00;21.10;;;;;;;1.49;100.00;99858.08;109002;1259;60084;-70
2023/01/21 04:48:37;;;;;;;38.70;21.50;;;;;;;1.47;100.00;99857.61;108928;1264;71800;-70
2023/01/21 04:51:06;;;;;;;30.90;18.90;;;;;;;1.48;100.00;99865.21;109047;1258;67016;-71
2023/01/21 04:53:36;;;;;;;30.10;21.00;;;;;;;1.50;100.00;99877.17;108985;1259;72558;-69
2023/01/21 04:56:04;;;;;;;31.30;17.80;;;;;;;1.49;100.00;99874.73;106709;1259;1002478;-69
2023/01/21 04:58:35;;;;;;;28.90;19.10;;;;;;;1.44;100.00;99875.27;109036;1259;62017;-70
2023/01/21 05:01:04;;;;;;;35.10;20.00;;;;;;;1.41;100.00;99874.79;108995;1259;72092;-68
2023/01/21 05:03:34;;;;;;;35.10;19.30;;;;;;;1.41;100.00;99871.21;109012;1259;68341;-69
2023/01/21 05:06:05;;;;;;;32.10;18.00;;;;;;;1.42;100.00;99872.64;108976;1259;75271;-69
2023/01/21 05:08:34;;;;;;;31.60;19.70;;;;;;;1.46;100.00;99877.30;108968;1259;61333;-71
2023/01/21 05:11:06;;;;;;;36.70;21.30;;;;;;;1.46;100.00;99879.27;108998;1259;61463;-70
2023/01/21 05:13:35;;;;;;;36.60;18.80;;;;;;;1.44;100.00;99889.06;108993;1259;74279;-70
2023/01/21 05:16:07;;;;;;;32.90;19.30;;;;;;;1.43;100.00;99875.91;108992;1263;70232;-70
2023/01/21 05:18:36;;;;;;;45.90;25.70;;;;;;;1.40;100.00;99881.08;109004;1259;72629;-70
2023/01/21 05:21:07;;;;;;;32.90;18.90;;;;;;;1.41;100.00;99881.67;108985;1259;61636;-69
2023/01/21 05:23:38;;;;;;;34.80;20.30;;;;;;;1.41;100.00;99881.67;108935;1259;59629;-69
2023/01/21 05:26:07;;;;;;;33.20;18.80;;;;;;;1.44;100.00;99884.29;108872;1266;75627;-67
2023/01/21 05:28:37;;;;;;;30.50;19.60;;;;;;;1.45;100.00;99880.42;109015;1264;68703;-68
2023/01/21 05:31:05;;;;;;;36.80;20.30;;;;;;;1.43;100.00;99876.98;108982;1259;72333;-68
2023/01/21 05:41:38;;;;;;;28.20;18.40;;;;;;;1.52;100.00;99880.79;102429;1293;601697;-68
2023/01/21 05:44:05;;;;;;;33.90;19.50;;;;;;;1.52;100.00;99877.45;105172;1263;59332;-70
2023/01/21 05:46:32;;;;;;;26.70;17.00;;;;;;;1.51;99.99;99884.05;105281;1259;60410;-68
2023/01/21 05:48:58;;;;;;;37.30;20.50;;;;;;;1.50;99.96;99873.10;105344;1254;75003;-70
2023/01/21 05:51:25;;;;;;;32.00;20.20;;;;;;;1.51;99.92;99872.92;105832;1258;70369;-71
2023/01/21 05:53:52;;;;;;;27.40;16.60;;;;;;;1.52;99.90;99872.02;105359;1259;74549;-69
2023/01/21 05:56:19;;;;;;;37.80;20.80;;;;;;;1.51;99.84;99873.29;104999;1258;588421;-71
2023/01/21 05:58:46;;;;;;;33.80;18.30;;;;;;;1.53;99.79;99874.04;105566;1251;61563;-70
2023/01/21 06:01:13;;;;;;;33.70;18.80;;;;;;;1.51;99.80;99876.63;105918;1255;72803;-69
2023/01/21 06:03:40;;;;;;;37.40;17.90;;;;;;;1.49;99.80;99882.22;105637;1252;69228;-68
2023/01/21 06:06:07;;;;;;;34.80;18.90;;;;;;;1.48;99.84;99889.48;105629;1256;72423;-71
2023/01/21 06:08:34;;;;;;;30.70;18.60;;;;;;;1.46;99.85;99885.77;105631;1251;62689;-70
2023/01/21 06:11:01;;;;;;;31.90;16.60;;;;;;;1.44;99.98;99875.25;105512;1257;60280;-67
2023/01/21 06:13:28;;;;;;;32.50;17.90;;;;;;;1.46;99.95;99883.46;105546;1256;73282;-69
2023/01/21 06:15:55;;;;;;;25.40;18.50;;;;;;;1.47;99.97;99884.21;105409;1251;68425;-68
2023/01/21 06:18:22;;;;;;;28.00;17.20;;;;;;;1.47;99.90;99881.13;105578;1256;73545;-70
2023/01/21 06:20:49;;;;;;;32.60;17.60;;;;;;;1.42;99.88;99874.20;105700;1256;60911;-71
2023/01/21 06:23:17;;;;;;;40.90;21.90;;;;;;;1.39;99.92;99877.95;105707;1256;59695;-71
2023/01/21 06:25:44;;;;;;;37.40;20.60;;;;;;;1.37;100.00;99885.47;106052;1256;73485;-72
2023/01/21 06:28:11;;;;;;;39.50;20.80;;;;;;;1.35;100.00;99882.51;105389;1254;68252;-71
2023/01/21 06:30:38;;;;;;;46.70;23.00;;;;;;;1.35;100.00;99891.05;105939;1254;73978;-71
2023/01/21 06:33:05;;;;;;;40.60;22.70;;;;;;;1.35;100.00;99892.65;105796;1259;59524;-74
2023/01/21 06:35:32;;;;;;;40.90;22.90;;;;;;;1.34;100.00;99887.76;105490;1254;61025;-72
2023/01/21 06:37:59;;;;;;;36.60;19.90;;;;;;;1.29;100.00;99891.37;105342;1254;74810;-72
2023/01/21 06:40:26;;;;;;;34.10;20.00;;;;;;;1.26;100.00;99891.77;105315;1261;70100;-71
2023/01/21 06:42:53;;;;;;;34.20;20.10;;;;;;;1.28;100.00;99889.23;106076;1259;71459;-69
2023/01/21 06:45:20;;;;;;;35.60;20.70;;;;;;;1.34;100.00;99890.45;105346;1254;63393;-70
2023/01/21 06:47:47;;;;;;;29.00;17.50;;;;;;;1.34;100.00;99875.93;105468;1257;61095;-69
2023/01/21 06:50:15;;;;;;;41.80;21.60;;;;;;;1.27;100.00;99883.14;105585;1255;75328;-68
2023/01/21 06:52:44;;;;;;;43.80;21.00;;;;;;;1.23;100.00;99884.46;105480;1258;67400;-69
2023/01/21 06:55:12;;;;;;;31.10;19.30;;;;;;;1.25;100.00;99888.73;105218;1261;71840;-72
2023/01/21 06:57:40;;;;;;;32.80;19.00;;;;;;;1.23;100.00;99892.60;105642;1260;61323;-72
2023/01/21 07:00:08;;;;;;;32.40;19.70;;;;;;;1.20;100.00;99897.05;105901;1253;62781;-69
2023/01/21 07:02:35;;;;;;;35.90;20.60;;;;;;;1.21;100.00;99898.77;105904;1253;72223;-70
2023/01/21 07:05:02;;;;;;;35.90;19.20;;;;;;;1.23;100.00;99899.16;105394;1260;69290;-70
2023/01/21 07:07:29;;;;;;;36.80;20.80;;;;;;;1.27;100.00;99905.94;105306;1259;74530;-71
2023/01/21 07:09:57;;;;;;;44.80;22.50;;;;;;;1.30;100.00;99899.23;105311;1254;59570;-70
2023/01/21 07:12:23;;;;;;;37.10;20.00;;;;;;;1.29;100.00;99895.12;105370;1257;60038;-69
2023/01/21 07:14:50;;;;;;;39.10;20.60;;;;;;;1.25;100.00;99892.54;105399;1258;72602;-71
2023/01/21 07:17:18;;;;;;;41.80;19.90;;;;;;;1.22;100.00;99895.16;105335;1257;67029;-70
2023/01/21 07:19:45;;;;;;;32.90;19.70;;;;;;;1.23;100.00;99903.89;105842;1254;72031;-70
2023/01/21 07:22:11;;;;;;;37.00;18.70;;;;;;;1.24;100.00;99904.39;105334;1259;60546;-69
2023/01/21 07:24:38;;;;;;;30.70;18.60;;;;;;;1.22;100.00;99913.38;105360;1255;61203;-72
2023/01/21 07:27:05;;;;;;;40.60;19.20;;;;;;;1.24;100.00;99918.32;105449;1257;75575;-72
2023/01/21 07:29:34;;;;;;;36.80;20.10;;;;;;;1.23;100.00;99925.25;105629;1253;68779;-69
2023/01/21 07:32:01;;;;;;;34.50;18.20;;;;;;;1.19;100.00;99927.95;105414;1255;72387;-71
2023/01/21 07:34:28;;;;;;;32.50;17.90;;;;;;;1.14;100.00;99937.19;105796;1254;62424;-68
2023/01/21 07:36:55;;;;;;;34.50;19.00;;;;;;;1.12;100.00;99945.37;105883;1253;59730;-67
2023/01/21 07:39:22;;;;;;;32.30;19.70;;;;;;;1.12;100.00;99958.82;105252;1257;73633;-71
2023/01/21 07:41:51;;;;;;;29.00;18.40;;;;;;;1.14;100.00;99958.92;105839;1254;69350;-69
2023/01/21 07:44:19;;;;;;;37.50;20.70;;;;;;;1.19;100.00;99956.65;105427;1254;75360;-71
2023/01/21 07:46:47;;;;;;;34.10;19.40;;;;;;;1.23;100.00;99947.20;105822;1253;61635;-68
2023/01/21 07:49:16;;;;;;;30.50;19.50;;;;;;;1.25;100.00;99948.86;105309;1259;60634;-71
2023/01/21 07:51:44;;;;;;;38.00;19.80;;;;;;;1.26;99.98;99956.66;109020;1254;75343;-74
2023/01/21 07:54:11;;;;;;;28.60;18.90;;;;;;;1.24;99.96;99962.66;109139;1254;71068;-69
2023/01/21 07:56:38;;;;;;;33.10;19.50;;;;;;;1.19;99.88;99969.77;109131;1253;74531;-74
2023/01/21 07:59:06;;;;;;;36.60;18.30;;;;;;;1.18;100.00;99965.89;108976;1254;63048;-68
2023/01/21 08:01:33;;;;;;;33.00;18.50;;;;;;;1.19;100.00;99970.59;109132;1254;62344;-68
2023/01/21 08:04:00;;;;;;;30.80;16.60;;;;;;;1.18;99.86;99971.27;109259;1255;71969;-73
2023/01/21 08:06:27;;;;;;;27.90;15.50;;;;;;;1.19;99.97;99974.73;109300;1254;66646;-75
2023/01/21 08:08:54;;;;;;;40.10;19.50;;;;;;;1.21;99.89;99977.33;109005;1254;72823;-71
2023/01/21 08:11:23;;;;;;;36.10;22.50;;;;;;;1.24;99.96;99978.15;109115;1252;59120;-69
2023/01/21 08:13:50;;;;;;;40.00;19.20;;;;;;;1.22;99.48;99981.19;109063;1253;59160;-70
2023/01/21 08:16:17;;;;;;;36.00;20.20;;;;;;;1.19;99.57;99992.52;109220;1254;72770;-73
2023/01/21 08:18:44;;;;;;;39.00;19.70;;;;;;;1.18;99.51;99991.80;109111;1253;67956;-69
2023/01/21 08:21:11;;;;;;;26.80;16.50;;;;;;;1.16;99.60;99992.74;108988;1257;73895;-72
2023/01/21 08:23:38;;;;;;;35.30;18.20;;;;;;;1.12;99.40;99998.11;109274;1253;60323;-68
2023/01/21 08:26:05;;;;;;;32.50;19.50;;;;;;;1.10;99.68;99998.27;109290;1253;59075;-69
2023/01/21 08:28:32;;;;;;;31.70;21.20;;;;;;;1.07;99.94;99998.73;109244;1254;74108;-71
2023/01/21 08:31:10;;;;;;;27.00;16.90;;;;;;;1.09;99.99;100003.09;109122;1255;68751;-68
2023/01/21 08:33:37;;;;;;;30.90;18.50;;;;;;;1.11;99.93;100009.71;109377;1254;73838;-70
2023/01/21 08:36:05;;;;;;;29.10;17.90;;;;;;;1.13;100.00;100011.41;109270;1255;60815;-71
2023/01/21 08:38:32;;;;;;;33.00;17.20;;;;;;;1.18;99.92;100006.14;109177;1254;62507;-68
2023/01/21 08:40:59;;;;;;;24.90;16.80;;;;;;;1.19;99.84;100012.19;109268;1254;75351;-69
2023/01/21 08:43:26;;;;;;;37.60;19.60;;;;;;;1.21;99.97;100015.94;109161;1254;66840;-68
2023/01/21 08:45:57;;;;;;;34.90;20.10;;;;;;;1.20;99.86;100014.45;109290;1254;74187;-69
2023/01/21 08:48:24;;;;;;;31.10;17.90;;;;;;;1.15;99.70;100024.44;109273;1254;60093;-69
2023/01/21 08:50:51;;;;;;;34.20;20.80;;;;;;;1.08;99.96;100027.89;109322;1254;60568;-69
2023/01/21 08:53:21;;;;;;;36.80;19.40;;;;;;;1.08;100.00;100035.14;109194;1254;72716;-68
2023/01/21 08:55:48;;;;;;;31.20;19.00;;;;;;;1.10;100.00;100040.13;109233;1254;67921;-72
2023/01/21 08:58:14;;;;;;;39.10;19.70;;;;;;;1.11;100.00;100037.33;109287;1254;73754;-72
2023/01/21 09:00:43;;;;;;;42.50;18.50;;;;;;;1.15;100.00;100038.82;109240;1254;63105;-69
2023/01/21 09:03:12;;;;;;;30.00;15.70;;;;;;;1.14;100.00;100036.64;109271;1254;60860;-69
2023/01/21 09:05:39;;;;;;;32.10;19.00;;;;;;;1.09;100.00;100038.64;109320;1254;74482;-69
2023/01/21 09:08:06;;;;;;;40.30;22.90;;;;;;;1.09;100.00;100041.02;109284;1254;67750;-69
2023/01/21 09:13:18;;;;;;;30.50;15.10;;;;;;;1.16;100.00;100041.05;109125;1254;63027;-70
2023/01/21 09:15:45;;;;;;;33.60;20.90;;;;;;;1.20;100.00;100040.45;109303;1254;61743;-69
2023/01/21 09:18:12;;;;;;;27.80;16.80;;;;;;;1.20;100.00;100032.23;109309;1254;74421;-68
2023/01/21 09:20:39;;;;;;;34.90;20.70;;;;;;;1.19;100.00;100028.45;109202;1258;67216;-72
2023/01/21 09:23:24;;;;;;;29.10;18.70;;;;;;;1.17;100.00;100036.41;109278;1254;72792;-69
2023/01/21 09:26:03;;;;;;;37.00;21.10;;;;;;;1.21;100.00;100038.63;109278;1254;62304;-70
2023/01/21 09:28:32;;;;;;;40.50;22.00;;;;;;;1.23;100.00;100047.91;109262;1254;60705;-71
2023/01/21 09:31:00;;;;;;;38.40;21.30;;;;;;;1.21;100.00;100045.77;109275;1254;72919;-69
2023/01/21 09:33:28;;;;;;;39.70;19.60;;;;;;;1.19;100.00;100050.60;109137;1256;69970;-69
2023/01/21 09:35:56;;;;;;;37.20;20.50;;;;;;;1.22;100.00;100045.58;109101;1256;72562;-71
2023/01/21 09:38:23;;;;;;;37.60;19.30;;;;;;;1.29;100.00;100042.38;109129;1256;58620;-73
2023/01/21 09:40:50;;;;;;;42.50;22.20;;;;;;;1.30;100.00;100038.40;108375;1256;1002346;-70
2023/01/21 09:43:21;;;;;;;35.20;22.30;;;;;;;1.30;100.00;100040.27;109096;1256;72853;-72
2023/01/21 09:45:49;;;;;;;31.40;17.20;;;;;;;1.29;100.00;100031.75;109162;1256;66796;-73
2023/01/21 09:48:30;;;;;;;31.90;20.00;;;;;;;1.30;100.00;100037.10;109012;1263;74329;-74
2023/01/21 09:50:58;;;;;;;36.50;17.90;;;;;;;1.29;100.00;100043.27;109023;1256;61225;-72
2023/01/21 14:11:25;;;;;;;41.00;25.30;;;;;;;0.75;100.00;100237.21;103071;1288;641912;-72
2023/01/21 14:14:14;;;;;;;63.20;31.30;;;;;;;0.83;100.00;100245.98;104578;1270;150043;-74
2023/01/21 14:17:16;;;;;;;52.50;34.40;;;;;;;0.89;100.00;100248.77;104794;1272;61903;-72
2023/01/21 14:20:05;;;;;;;44.40;26.90;;;;;;;1.00;100.00;100250.09;104199;1279;73765;-76
2023/01/21 14:23:03;;;;;;;54.00;26.60;;;;;;;1.10;100.00;100261.28;104888;1270;67831;-70
2023/01/21 14:25:51;;;;;;;44.80;24.70;;;;;;;1.10;100.00;100269.81;104709;1272;71130;-72
2023/01/21 14:28:29;;;;;;;45.20;24.70;;;;;;;1.07;100.00;100275.40;104818;1270;63129;-73
2023/01/21 14:31:15;;;;;;;33.90;20.90;;;;;;;1.09;100.00;100285.44;104725;1271;60809;-71
2023/01/21 14:33:50;;;;;;;47.90;22.60;;;;;;;1.12;100.00;100287.89;104734;1271;71926;-73
2023/01/21 14:36:22;;;;;;;37.50;22.80;;;;;;;1.21;100.00;100292.17;104696;1275;68635;-72
2023/01/21 14:39:31;;;;;;;34.60;21.10;;;;;;;1.26;100.00;100296.26;104763;1270;73025;-74
2023/01/21 14:42:10;;;;;;;43.00;20.70;;;;;;;1.30;100.00;100296.76;104080;1278;60828;-74
2023/01/21 14:44:38;;;;;;;44.50;20.50;;;;;;;1.35;100.00;100300.88;104049;1282;59764;-71
2023/01/21 14:47:18;;;;;;;33.40;18.40;;;;;;;1.32;100.00;100308.80;104371;1270;73395;-78
2023/01/21 14:49:47;;;;;;;30.00;18.50;;;;;;;1.30;100.00;100314.13;105312;1263;67240;-76
2023/01/21 14:52:16;;;;;;;42.30;21.70;;;;;;;1.25;100.00;100316.86;105300;1264;73835;-77
2023/01/21 14:54:44;;;;;;;34.80;19.10;;;;;;;1.21;100.00;100324.17;105450;1261;60871;-77
2023/01/21 14:57:27;;;;;;;40.70;19.40;;;;;;;1.17;100.00;100317.50;105335;1263;59778;-77
2023/01/21 15:00:17;;;;;;;39.30;19.30;;;;;;;1.19;100.00;100314.80;105343;1264;74724;-77
2023/01/21 15:02:45;;;;;;;38.10;18.90;;;;;;;1.21;100.00;100315.65;105276;1268;67660;-78
2023/01/21 15:05:48;;;;;;;36.60;18.40;;;;;;;1.21;100.00;100312.67;105183;1267;74773;-80
2023/01/21 15:08:20;;;;;;;35.70;18.80;;;;;;;1.28;100.00;100319.56;105071;1270;60474;-81
2023/01/21 15:10:49;;;;;;;;;;;;;;;1.35;100.00;100319.23;105499;1263;62109;-79
2023/01/21 15:13:32;;;;;;;29.10;16.20;;;;;;;1.31;100.00;100322.79;105395;1270;73308;-80
2023/01/21 15:16:04;;;;;;;27.70;16.30;;;;;;;1.27;100.00;100324.51;105568;1263;69680;-81
2023/01/21 15:18:39;;;;;;;35.00;18.80;;;;;;;1.26;100.00;100328.88;105488;1263;74585;-79
2023/01/21 15:21:32;;;;;;;22.90;14.50;;;;;;;1.22;100.00;100331.16;105361;1267;62612;-79
2023/01/21 15:24:37;;;;;;;28.40;16.20;;;;;;;1.13;100.00;100331.90;105484;1263;60693;-78
2023/01/21 15:27:17;;;;;;;27.90;17.50;;;;;;;1.09;100.00;100334.04;105329;1263;74600;-79
2023/01/21 15:29:53;;;;;;;26.20;16.30;;;;;;;1.10;100.00;100342.09;105407;1266;66590;-79
2023/01/21 15:32:21;;;;;;;25.90;18.10;;;;;;;1.08;100.00;100346.13;105293;1263;74157;-80
2023/01/21 15:34:53;;;;;;;31.00;18.70;;;;;;;1.10;100.00;100348.23;105457;1262;61422;-79
2023/01/21 15:37:23;;;;;;;23.80;15.10;;;;;;;1.12;100.00;100350.80;105315;1264;60758;-79
2023/01/21 15:39:52;;;;;;;27.60;15.40;;;;;;;1.13;100.00;100357.02;105524;1262;73175;-78
2023/01/21 15:42:32;;;;;;;21.60;15.60;;;;;;;1.10;100.00;100364.14;105472;1264;69476;-79
2023/01/21 15:45:03;;;;;;;23.60;16.00;;;;;;;1.10;100.00;100368.58;105404;1263;74325;-79
2023/01/21 15:47:30;;;;;;;24.10;16.80;;;;;;;1.11;100.00;100365.21;105679;1261;61010;-79
2023/01/21 15:50:33;;;;;;;28.20;16.90;;;;;;;1.11;100.00;100368.55;105818;1260;61921;-77
2023/01/21 15:53:30;;;;;;;27.50;15.10;;;;;;;1.09;100.00;100377.11;105517;1265;73639;-78
2023/01/21 15:56:15;;;;;;;26.50;17.00;;;;;;;1.10;100.00;100375.72;105410;1261;67694;-76
2023/01/21 15:59:00;;;;;;;23.10;13.50;;;;;;;1.13;100.00;100378.59;105682;1261;72102;-78
2023/01/21 16:01:36;;;;;;;22.10;14.80;;;;;;;1.14;100.00;100384.55;105378;1261;60955;-78
2023/01/21 16:04:37;;;;;;;21.30;14.30;;;;;;;1.14;100.00;100383.56;105566;1263;62260;-79